aviador You're here:

KGLD Decoded Metar

GOODLAND in KS, USA
Report Time2017-11-24 10:53:00
UTC Time2017-11-24 11:16:30
Flight Rules vfr VFR
Wind250° at 08 kt
W.Decomp.*RWY 23: 7.9 kt HW 1.5 kt RCW
RWY 30: 4.1 kt HW 6.9 kt LCW
RWY 17: 2.6 kt HW 7.6 kt RCW
W.Rank250° ranks 12
Current wind is above 250° avg. (7.8)
Visibility9999 m
Phenomena:N/A
Clouds:N/A
Expected CloudBase > 2,800 ft AGL from Temp-Dew spread
CeilingNone
Temp08°C (ISA 0)
Dew Point01°C (62% RH)
AAT3.3°C
QNH1007 hPa
Density Alt3,986 ft
Elevation3,652 ft
Report Wrong Elevation
Raw Report
KGLD 241053Z AUTO 25008KT 10SM CLR 08/01 A2975 RMK AO2 SLP050
T00780006=

Extra information for KGLD:More info

Metar Taf Metar & Taf Last 4 Metars F.Rules Stats Wind Profile Meteogram Temp Stats Airport Information Weather charts Add Link Nearby VenuesMetar ALERT Operation Metar Decoded Social comments

AIRNAV info for KGLD